createdAt,value
2018-09-04T00:00:11.452Z,6.2
2018-09-04T00:00:23.880Z,5.9
2018-09-04T00:00:36.330Z,5.9
2018-09-04T00:00:48.838Z,5.9
2018-09-04T00:01:01.283Z,5.9
2018-09-04T00:01:13.711Z,5.9
2018-09-04T00:01:26.171Z,5.9
2018-09-04T00:01:38.590Z,5.9
2018-09-04T00:01:50.998Z,5.9
2018-09-04T00:02:03.440Z,5.9
2018-09-04T00:02:15.892Z,5.9
2018-09-04T00:02:28.311Z,5.9
2018-09-04T00:02:40.801Z,5.9
2018-09-04T00:02:53.349Z,5.9
2018-09-04T00:03:05.896Z,5.9
2018-09-04T00:03:18.300Z,5.9
2018-09-04T00:03:30.718Z,5.9
2018-09-04T00:03:43.133Z,5.9
2018-09-04T00:03:55.555Z,5.9
2018-09-04T00:04:08.003Z,5.9
2018-09-04T00:04:20.416Z,5.9
2018-09-04T00:04:32.836Z,5.9
2018-09-04T00:04:45.408Z,5.9
2018-09-04T00:04:57.824Z,5.9
2018-09-04T00:05:10.265Z,5.9
2018-09-04T00:05:22.717Z,5.9
2018-09-04T00:05:35.155Z,5.9
2018-09-04T00:05:47.591Z,5.9
2018-09-04T00:06:00.019Z,5.9
2018-09-04T00:06:12.430Z,5.9
2018-09-04T00:06:24.851Z,5.9
2018-09-04T00:06:37.263Z,5.9
2018-09-04T00:06:49.666Z,5.9
2018-09-04T00:07:02.061Z,5.9
2018-09-04T00:07:14.479Z,5.9
2018-09-04T00:07:26.924Z,5.9
2018-09-04T00:07:39.326Z,5.9
2018-09-04T00:07:51.712Z,5.9
2018-09-04T00:08:04.120Z,5.9
2018-09-04T00:08:16.520Z,5.9
2018-09-04T00:08:28.921Z,5.9
2018-09-04T00:08:41.328Z,5.9
2018-09-04T00:08:53.727Z,5.9
2018-09-04T00:09:06.130Z,5.9
2018-09-04T00:09:18.538Z,5.9
2018-09-04T00:09:30.935Z,5.9
2018-09-04T00:09:43.360Z,5.9
2018-09-04T00:09:55.778Z,5.9
2018-09-04T00:10:08.192Z,5.9
2018-09-04T00:10:20.591Z,5.9
2018-09-04T00:10:33.008Z,5.9
2018-09-04T00:10:45.413Z,5.9
2018-09-04T00:10:57.823Z,5.9
2018-09-04T00:11:10.240Z,5.9
2018-09-04T00:11:22.713Z,5.9
2018-09-04T00:11:35.208Z,5.9
2018-09-04T00:11:47.723Z,5.9
2018-09-04T00:12:00.118Z,5.9
2018-09-04T00:12:12.665Z,5.9
2018-09-04T00:12:25.064Z,5.9
2018-09-04T00:12:37.483Z,5.9
2018-09-04T00:12:50.156Z,5.9
2018-09-04T00:13:02.569Z,5.9
2018-09-04T00:13:14.988Z,5.9
2018-09-04T00:13:27.396Z,5.9
2018-09-04T00:13:39.854Z,5.9
2018-09-04T00:13:52.404Z,5.9
2018-09-04T00:14:04.844Z,5.9
2018-09-04T00:14:17.287Z,5.9
2018-09-04T00:14:29.725Z,5.9
2018-09-04T00:14:42.146Z,5.9
2018-09-04T00:14:54.549Z,5.9
2018-09-04T00:15:06.970Z,5.9
2018-09-04T00:15:19.377Z,5.9
2018-09-04T00:15:31.771Z,5.9
2018-09-04T00:15:44.169Z,5.9
2018-09-04T00:15:56.579Z,5.9
2018-09-04T00:16:08.979Z,5.9
2018-09-04T00:16:21.371Z,5.9
2018-09-04T00:16:33.747Z,5.9
2018-09-04T00:16:46.152Z,5.9
2018-09-04T00:16:58.555Z,5.9
2018-09-04T00:17:10.960Z,5.9
2018-09-04T00:17:23.383Z,5.9
2018-09-04T00:17:35.783Z,5.9
2018-09-04T00:17:48.222Z,5.9
2018-09-04T00:18:00.632Z,5.9
2018-09-04T00:18:13.041Z,5.9
2018-09-04T00:18:25.458Z,5.9
2018-09-04T00:18:37.893Z,5.9
2018-09-04T00:18:50.310Z,5.9
2018-09-04T00:19:02.717Z,5.9
2018-09-04T00:19:15.134Z,5.9
2018-09-04T00:19:27.541Z,5.9
2018-09-04T00:19:39.935Z,5.9
2018-09-04T00:19:52.386Z,5.9
2018-09-04T00:20:05.110Z,5.9
2018-09-04T00:20:17.542Z,5.9
2018-09-04T00:20:29.955Z,5.08
2018-09-04T00:20:42.441Z,5.08
2018-09-04T00:20:54.843Z,5.08
2018-09-04T00:21:07.383Z,5.08
2018-09-04T00:21:19.806Z,5.08
2018-09-04T00:21:32.237Z,5.08
2018-09-04T00:21:44.827Z,5.08
2018-09-04T00:21:57.251Z,5.08
2018-09-04T00:22:09.664Z,5.08
2018-09-04T00:22:22.075Z,5.08
2018-09-04T00:22:34.483Z,5.08
2018-09-04T00:22:46.943Z,5.08
2018-09-04T00:22:59.425Z,5.08
2018-09-04T00:23:11.820Z,5.08
2018-09-04T00:23:24.217Z,5.08
2018-09-04T00:23:36.619Z,5.08
2018-09-04T00:23:49.105Z,5.08
2018-09-04T00:24:01.502Z,5.08
2018-09-04T00:24:13.955Z,5.08
2018-09-04T00:24:26.396Z,5.08
2018-09-04T00:24:38.793Z,5.08
2018-09-04T00:24:51.213Z,5.08
2018-09-04T00:25:03.785Z,5.08
2018-09-04T00:25:16.193Z,5.08
2018-09-04T00:25:28.611Z,5.08
2018-09-04T00:25:41.055Z,5.08
2018-09-04T00:25:53.454Z,5.08
2018-09-04T00:26:05.853Z,5.08
2018-09-04T00:26:18.307Z,5.08
2018-09-04T00:26:30.724Z,5.08
2018-09-04T00:26:43.127Z,5.08
2018-09-04T00:26:55.549Z,5.08
2018-09-04T00:27:07.949Z,5.08
2018-09-04T00:27:20.366Z,5.08
2018-09-04T00:27:32.776Z,5.08
2018-09-04T00:27:45.188Z,5.08
2018-09-04T00:27:57.594Z,5.08
2018-09-04T00:28:10.018Z,5.08
2018-09-04T00:28:22.404Z,5.08
2018-09-04T00:28:34.968Z,5.08
2018-09-04T00:28:47.367Z,5.08
2018-09-04T00:28:59.771Z,5.08
2018-09-04T00:29:12.179Z,5.08
2018-09-04T00:29:24.575Z,5.08
2018-09-04T00:29:36.987Z,5.08
2018-09-04T00:29:49.392Z,5.08
2018-09-04T00:30:01.798Z,5.08
2018-09-04T00:30:14.221Z,5.08
2018-09-04T00:30:26.614Z,5.46
2018-09-04T00:30:39.185Z,5.46
2018-09-04T00:30:51.603Z,5.46
2018-09-04T00:31:04.033Z,5.46
2018-09-04T00:31:16.599Z,5.46
2018-09-04T00:31:29.000Z,5.46
2018-09-04T00:31:41.422Z,5.46
2018-09-04T00:31:53.815Z,5.46
2018-09-04T00:32:06.214Z,5.46
2018-09-04T00:32:18.620Z,5.46
2018-09-04T00:32:31.014Z,5.46
2018-09-04T00:32:43.426Z,5.46
2018-09-04T00:32:55.846Z,5.46
2018-09-04T00:33:08.241Z,5.46
2018-09-04T00:33:20.655Z,5.46
2018-09-04T00:33:33.048Z,5.46
2018-09-04T00:33:45.474Z,5.46
2018-09-04T00:33:57.899Z,5.46
2018-09-04T00:34:10.328Z,5.46
2018-09-04T00:34:23.232Z,5.46
2018-09-04T00:34:37.283Z,5.46
2018-09-04T00:34:49.744Z,5.46
2018-09-04T00:35:02.193Z,5.46
2018-09-04T00:35:14.692Z,5.46
2018-09-04T00:35:27.111Z,5.46
2018-09-04T00:35:39.570Z,5.46
2018-09-04T00:35:51.974Z,5.46
2018-09-04T00:36:04.404Z,5.46
2018-09-04T00:36:16.855Z,5.46
2018-09-04T00:36:29.252Z,5.46
2018-09-04T00:36:41.657Z,5.46
2018-09-04T00:36:54.064Z,5.46
2018-09-04T00:37:06.474Z,5.46
2018-09-04T00:37:18.862Z,5.46
2018-09-04T00:37:31.245Z,5.46
2018-09-04T00:37:43.668Z,5.46
2018-09-04T00:37:56.117Z,5.46
2018-09-04T00:38:08.528Z,5.46
2018-09-04T00:38:20.933Z,5.46
2018-09-04T00:38:33.337Z,5.46
2018-09-04T00:38:45.748Z,5.46
2018-09-04T00:38:58.146Z,5.46
2018-09-04T00:39:10.540Z,5.46
2018-09-04T00:39:22.963Z,5.46
2018-09-04T00:39:35.359Z,5.46
2018-09-04T00:39:47.757Z,5.46
2018-09-04T00:40:00.151Z,5.46
2018-09-04T00:40:12.541Z,5.46
2018-09-04T00:40:24.971Z,5.96
2018-09-04T00:40:37.364Z,5.96
2018-09-04T00:40:49.768Z,5.96
2018-09-04T00:41:02.180Z,5.96
2018-09-04T00:41:14.591Z,5.96
2018-09-04T00:41:27.033Z,5.96
2018-09-04T00:41:39.459Z,5.96
2018-09-04T00:41:51.877Z,5.96
2018-09-04T00:42:04.294Z,5.96
2018-09-04T00:42:16.716Z,5.96
2018-09-04T00:42:29.116Z,5.96
2018-09-04T00:42:41.541Z,5.96
2018-09-04T00:42:53.951Z,5.96
2018-09-04T00:43:06.345Z,5.96
2018-09-04T00:43:18.747Z,5.96
2018-09-04T00:43:31.170Z,5.96
2018-09-04T00:43:43.581Z,5.96
2018-09-04T00:43:55.982Z,5.96
2018-09-04T00:44:08.388Z,5.96
2018-09-04T00:44:20.787Z,5.96
2018-09-04T00:44:33.192Z,5.96
2018-09-04T00:44:45.596Z,5.96
2018-09-04T00:44:58.047Z,5.96
2018-09-04T00:45:10.479Z,5.96
2018-09-04T00:45:22.898Z,5.96
2018-09-04T00:45:35.313Z,5.96
2018-09-04T00:45:47.717Z,5.96
2018-09-04T00:46:00.165Z,5.96
2018-09-04T00:46:12.583Z,5.96
2018-09-04T00:46:25.041Z,5.96
2018-09-04T00:46:37.599Z,5.96
2018-09-04T00:46:50.010Z,5.96
2018-09-04T00:47:02.431Z,5.96
2018-09-04T00:47:14.821Z,5.96
2018-09-04T00:47:27.279Z,5.96
2018-09-04T00:47:39.693Z,5.96
2018-09-04T00:47:52.085Z,5.96
2018-09-04T00:48:04.569Z,5.96
2018-09-04T00:48:16.994Z,5.96
2018-09-04T00:48:29.413Z,5.96
2018-09-04T00:48:41.808Z,5.96
2018-09-04T00:48:54.277Z,5.96
2018-09-04T00:49:06.875Z,5.96
2018-09-04T00:49:19.451Z,5.96
2018-09-04T00:49:31.881Z,5.96
2018-09-04T00:49:44.279Z,5.96
2018-09-04T00:49:56.671Z,5.96
2018-09-04T00:50:09.076Z,5.96
2018-09-04T00:50:21.461Z,5.96
2018-09-04T00:50:33.866Z,5.05
2018-09-04T00:50:46.256Z,5.05
2018-09-04T00:50:58.654Z,5.05
2018-09-04T00:51:11.056Z,5.05
2018-09-04T00:51:23.468Z,5.05
2018-09-04T00:51:35.877Z,5.05
2018-09-04T00:51:48.288Z,5.05
2018-09-04T00:52:00.716Z,5.05
2018-09-04T00:52:13.131Z,5.05
2018-09-04T00:52:25.563Z,5.05
2018-09-04T00:52:38.017Z,5.05
2018-09-04T00:52:50.425Z,5.05
2018-09-04T00:53:02.822Z,5.05
2018-09-04T00:53:15.276Z,5.05
2018-09-04T00:53:27.672Z,5.05
2018-09-04T00:53:40.106Z,5.05
2018-09-04T00:53:52.519Z,5.05
2018-09-04T00:54:04.945Z,5.05
2018-09-04T00:54:17.380Z,5.05
2018-09-04T00:54:29.792Z,5.05
2018-09-04T00:54:42.184Z,5.05
2018-09-04T00:54:54.581Z,5.05
2018-09-04T00:55:07.165Z,5.05
2018-09-04T00:55:19.561Z,5.05
2018-09-04T00:55:31.959Z,5.05
2018-09-04T00:55:44.361Z,5.05
2018-09-04T00:55:56.756Z,5.05
2018-09-04T00:56:09.184Z,5.05
2018-09-04T00:56:21.590Z,5.05
2018-09-04T00:56:33.984Z,5.05
2018-09-04T00:56:46.368Z,5.05
2018-09-04T00:56:58.755Z,5.05
2018-09-04T00:57:11.171Z,5.05
2018-09-04T00:57:23.574Z,5.05
2018-09-04T00:57:35.998Z,5.05
2018-09-04T00:57:48.386Z,5.05
2018-09-04T00:58:00.792Z,5.05
2018-09-04T00:58:13.218Z,5.05
2018-09-04T00:58:25.622Z,5.05
2018-09-04T00:58:38.019Z,5.05
2018-09-04T00:58:50.530Z,5.05
2018-09-04T00:59:03.863Z,5.05
2018-09-04T00:59:16.925Z,5.05
2018-09-04T00:59:29.334Z,5.05
2018-09-04T00:59:41.728Z,5.05
2018-09-04T00:59:54.123Z,5.05
2018-09-04T01:00:06.566Z,5.05
2018-09-04T01:00:18.990Z,5.05
2018-09-04T01:00:31.502Z,5.37
2018-09-04T01:00:43.928Z,5.37
2018-09-04T01:00:56.355Z,5.37
2018-09-04T01:01:08.774Z,5.37
2018-09-04T01:01:21.197Z,5.37
2018-09-04T01:01:33.626Z,5.37
2018-09-04T01:01:46.055Z,5.37
2018-09-04T01:01:58.468Z,5.37
2018-09-04T01:02:10.880Z,5.37
2018-09-04T01:02:23.268Z,5.37
2018-09-04T01:02:35.665Z,5.37
2018-09-04T01:02:48.084Z,5.37
2018-09-04T01:03:00.655Z,5.37
2018-09-04T01:03:13.052Z,5.37
2018-09-04T01:03:25.459Z,5.37
2018-09-04T01:03:37.966Z,5.37
2018-09-04T01:03:50.375Z,5.37
2018-09-04T01:04:02.789Z,5.37
2018-09-04T01:04:15.206Z,5.37
2018-09-04T01:04:27.784Z,5.37
2018-09-04T01:04:40.205Z,5.37
2018-09-04T01:04:52.706Z,5.37
2018-09-04T01:05:05.125Z,5.37
2018-09-04T01:05:17.529Z,5.37
2018-09-04T01:05:29.969Z,5.37
2018-09-04T01:05:42.387Z,5.37
2018-09-04T01:05:54.839Z,5.37
2018-09-04T01:06:07.249Z,5.37
2018-09-04T01:06:19.652Z,5.37
2018-09-04T01:06:32.096Z,5.37
2018-09-04T01:06:44.517Z,5.37
2018-09-04T01:06:56.920Z,5.37
2018-09-04T01:07:09.313Z,5.37
2018-09-04T01:07:21.713Z,5.37
2018-09-04T01:07:34.108Z,5.37
2018-09-04T01:07:46.694Z,5.37
2018-09-04T01:07:59.126Z,5.37
2018-09-04T01:08:11.520Z,5.37
2018-09-04T01:08:23.925Z,5.37
2018-09-04T01:08:36.317Z,5.37
2018-09-04T01:08:48.713Z,5.37
2018-09-04T01:09:01.116Z,5.37
2018-09-04T01:09:13.525Z,5.37
2018-09-04T01:09:25.961Z,5.37
2018-09-04T01:09:38.365Z,5.37
2018-09-04T01:09:50.776Z,5.37
2018-09-04T01:10:03.190Z,5.37
2018-09-04T01:10:15.598Z,5.37
2018-09-04T01:10:28.014Z,4.4
2018-09-04T01:10:40.426Z,4.4
2018-09-04T01:10:52.850Z,4.4
2018-09-04T01:11:05.282Z,4.4
2018-09-04T01:11:17.685Z,4.4
2018-09-04T01:11:30.132Z,4.4
2018-09-04T01:11:43.031Z,4.4
2018-09-04T01:11:55.447Z,4.4
2018-09-04T01:12:08.043Z,4.4
2018-09-04T01:12:20.447Z,4.4
2018-09-04T01:12:32.844Z,4.4
2018-09-04T01:12:45.230Z,4.4
2018-09-04T01:12:57.657Z,4.4
2018-09-04T01:13:10.050Z,4.4
2018-09-04T01:13:22.476Z,4.4
2018-09-04T01:13:34.887Z,4.4
2018-09-04T01:13:47.439Z,4.4
2018-09-04T01:13:59.861Z,4.4
2018-09-04T01:14:12.370Z,4.4
2018-09-04T01:14:24.784Z,4.4
2018-09-04T01:14:37.203Z,4.4
2018-09-04T01:14:49.616Z,4.4
2018-09-04T01:15:02.041Z,4.4
2018-09-04T01:15:14.435Z,4.4
2018-09-04T01:15:26.845Z,4.4
2018-09-04T01:15:39.300Z,4.4
2018-09-04T01:15:51.727Z,4.4
2018-09-04T01:16:04.136Z,4.4
2018-09-04T01:16:16.534Z,4.4
2018-09-04T01:16:28.925Z,4.4
2018-09-04T01:16:41.342Z,4.4
2018-09-04T01:16:53.755Z,4.4
2018-09-04T01:17:06.247Z,4.4
2018-09-04T01:17:18.641Z,4.4
2018-09-04T01:17:31.045Z,4.4
2018-09-04T01:17:43.448Z,4.4
2018-09-04T01:17:55.854Z,4.4
2018-09-04T01:18:08.253Z,4.4
2018-09-04T01:18:20.651Z,4.4
2018-09-04T01:18:33.053Z,4.4
2018-09-04T01:18:45.462Z,4.4
2018-09-04T01:18:57.870Z,4.4
2018-09-04T01:19:10.277Z,4.4
2018-09-04T01:19:22.697Z,4.4
2018-09-04T01:19:35.177Z,4.4
2018-09-04T01:19:47.643Z,4.4
2018-09-04T01:20:00.146Z,4.4
2018-09-04T01:20:12.562Z,4.4
2018-09-04T01:20:24.966Z,4.82
2018-09-04T01:20:37.476Z,4.82
2018-09-04T01:20:49.890Z,4.82
2018-09-04T01:21:02.283Z,4.82
2018-09-04T01:21:14.757Z,4.82
2018-09-04T01:21:27.154Z,4.82
2018-09-04T01:21:39.568Z,4.82
2018-09-04T01:21:52.084Z,4.82
2018-09-04T01:22:04.474Z,4.82
2018-09-04T01:22:16.887Z,4.82
2018-09-04T01:22:29.305Z,4.82
2018-09-04T01:22:41.720Z,4.82
2018-09-04T01:22:54.283Z,4.82
2018-09-04T01:23:06.681Z,4.82
2018-09-04T01:23:19.095Z,4.82
2018-09-04T01:23:31.509Z,4.82
2018-09-04T01:23:44.083Z,4.82
2018-09-04T01:23:56.499Z,4.82
2018-09-04T01:24:08.881Z,4.82
2018-09-04T01:24:21.289Z,4.82
2018-09-04T01:24:33.712Z,4.82
2018-09-04T01:24:46.330Z,4.82
2018-09-04T01:24:58.885Z,4.82
2018-09-04T01:25:11.291Z,4.82
2018-09-04T01:25:23.707Z,4.82
2018-09-04T01:25:36.096Z,4.82
2018-09-04T01:25:48.499Z,4.82
2018-09-04T01:26:00.879Z,4.82
2018-09-04T01:26:13.286Z,4.82
2018-09-04T01:26:25.689Z,4.82
2018-09-04T01:26:38.098Z,4.82
2018-09-04T01:26:50.522Z,4.82
2018-09-04T01:27:02.947Z,4.82
2018-09-04T01:27:15.346Z,4.82
2018-09-04T01:27:27.778Z,4.82
2018-09-04T01:27:40.177Z,4.82
2018-09-04T01:27:52.583Z,4.82
2018-09-04T01:28:04.985Z,4.82
2018-09-04T01:28:17.463Z,4.82
2018-09-04T01:28:29.875Z,4.82
2018-09-04T01:28:42.274Z,4.82
2018-09-04T01:28:54.696Z,4.82
2018-09-04T01:29:07.114Z,4.82
2018-09-04T01:29:19.550Z,4.82
2018-09-04T01:29:31.964Z,4.82
2018-09-04T01:29:44.366Z,4.82
2018-09-04T01:29:56.865Z,4.82
2018-09-04T01:30:09.268Z,4.82
2018-09-04T01:30:21.686Z,4.82
2018-09-04T01:30:34.126Z,4.83
2018-09-04T01:30:46.537Z,4.83
2018-09-04T01:30:58.987Z,4.83
2018-09-04T01:31:11.391Z,4.83
2018-09-04T01:31:23.958Z,4.83
2018-09-04T01:31:36.369Z,4.83
2018-09-04T01:31:48.783Z,4.83
2018-09-04T01:32:01.182Z,4.83
2018-09-04T01:32:13.641Z,4.83
2018-09-04T01:32:26.059Z,4.83
2018-09-04T01:32:38.484Z,4.83
2018-09-04T01:32:50.894Z,4.83
2018-09-04T01:33:03.325Z,4.83
2018-09-04T01:33:15.737Z,4.83
2018-09-04T01:33:28.152Z,4.83
2018-09-04T01:33:40.600Z,4.83
2018-09-04T01:33:53.009Z,4.83
2018-09-04T01:34:05.434Z,4.83
2018-09-04T01:34:17.847Z,4.83
2018-09-04T01:34:30.285Z,4.83
2018-09-04T01:34:42.707Z,4.83
2018-09-04T01:34:55.131Z,4.83
2018-09-04T01:35:07.539Z,4.83
2018-09-04T01:35:19.952Z,4.83
2018-09-04T01:35:32.353Z,4.83
2018-09-04T01:35:44.748Z,4.83
2018-09-04T01:35:57.160Z,4.83
2018-09-04T01:36:09.565Z,4.83
2018-09-04T01:36:22.056Z,4.83
2018-09-04T01:36:34.460Z,4.83
2018-09-04T01:36:46.884Z,4.83
2018-09-04T01:36:59.290Z,4.83
2018-09-04T01:37:11.740Z,4.83
2018-09-04T01:37:24.151Z,4.83
2018-09-04T01:37:36.565Z,4.83
2018-09-04T01:37:49.024Z,4.83
2018-09-04T01:38:01.437Z,4.83
2018-09-04T01:38:13.849Z,4.83
2018-09-04T01:38:26.256Z,4.83
2018-09-04T01:38:38.676Z,4.83
2018-09-04T01:38:51.120Z,4.83
2018-09-04T01:39:03.741Z,4.83
2018-09-04T01:39:16.141Z,4.83
2018-09-04T01:39:28.559Z,4.83
2018-09-04T01:39:40.992Z,4.83
2018-09-04T01:39:53.395Z,4.83
2018-09-04T01:40:05.869Z,4.83
2018-09-04T01:40:18.276Z,4.83
2018-09-04T01:40:30.708Z,4.45
2018-09-04T01:40:43.154Z,4.45
2018-09-04T01:40:55.572Z,4.45
2018-09-04T01:41:08.027Z,4.45
2018-09-04T01:41:20.510Z,4.45
2018-09-04T01:41:32.941Z,4.45
2018-09-04T01:41:45.372Z,4.45
2018-09-04T01:41:57.848Z,4.45
2018-09-04T01:42:10.296Z,4.45
2018-09-04T01:42:22.744Z,4.45
2018-09-04T01:42:35.174Z,4.45
2018-09-04T01:42:47.581Z,4.45
2018-09-04T01:43:00.018Z,4.45
2018-09-04T01:43:12.428Z,4.45
2018-09-04T01:43:24.842Z,4.45
2018-09-04T01:43:37.251Z,4.45
2018-09-04T01:43:49.662Z,4.45
2018-09-04T01:44:02.094Z,4.45
2018-09-04T01:44:14.621Z,4.45
2018-09-04T01:44:27.068Z,4.45
2018-09-04T01:44:39.492Z,4.45
2018-09-04T01:44:51.916Z,4.45
2018-09-04T01:45:04.332Z,4.45
2018-09-04T01:45:16.752Z,4.45
2018-09-04T01:45:29.168Z,4.45
2018-09-04T01:45:41.575Z,4.45
2018-09-04T01:45:53.978Z,4.45
2018-09-04T01:46:06.392Z,4.45
2018-09-04T01:46:18.795Z,4.45
2018-09-04T01:46:31.191Z,4.45
2018-09-04T01:46:43.593Z,4.45
2018-09-04T01:46:56.004Z,4.45
2018-09-04T01:47:08.413Z,4.45
2018-09-04T01:47:20.836Z,4.45
2018-09-04T01:47:33.260Z,4.45
2018-09-04T01:47:45.716Z,4.45
2018-09-04T01:47:58.133Z,4.45
2018-09-04T01:48:10.821Z,4.45
2018-09-04T01:48:23.237Z,4.45
2018-09-04T01:48:35.642Z,4.45
2018-09-04T01:48:48.046Z,4.45
2018-09-04T01:49:00.461Z,4.45
2018-09-04T01:49:13.289Z,4.45
2018-09-04T01:49:25.763Z,4.45
2018-09-04T01:49:38.169Z,4.45
2018-09-04T01:49:50.591Z,4.45
2018-09-04T01:50:02.988Z,4.45
2018-09-04T01:50:15.412Z,4.45
2018-09-04T01:50:27.825Z,4.79
2018-09-04T01:50:40.285Z,4.79
2018-09-04T01:50:52.697Z,4.79
2018-09-04T01:51:05.089Z,4.79
2018-09-04T01:51:17.487Z,4.79
2018-09-04T01:51:29.893Z,4.79
2018-09-04T01:51:42.301Z,4.79
2018-09-04T01:51:54.735Z,4.79
2018-09-04T01:52:07.152Z,4.79
2018-09-04T01:52:19.576Z,4.79
2018-09-04T01:52:31.986Z,4.79
2018-09-04T01:52:44.411Z,4.79
2018-09-04T01:52:56.816Z,4.79
2018-09-04T01:53:09.283Z,4.79
2018-09-04T01:53:21.693Z,4.79
2018-09-04T01:53:34.100Z,4.79
2018-09-04T01:53:46.506Z,4.79
2018-09-04T01:53:58.913Z,4.79
2018-09-04T01:54:11.336Z,4.79
2018-09-04T01:54:23.799Z,4.79
2018-09-04T01:54:36.205Z,4.79
2018-09-04T01:54:48.624Z,4.79
2018-09-04T01:55:01.143Z,4.79
2018-09-04T01:55:13.549Z,4.79
2018-09-04T01:55:25.954Z,4.79
2018-09-04T01:55:38.358Z,4.79
2018-09-04T01:55:50.780Z,4.79
2018-09-04T01:56:03.189Z,4.79
2018-09-04T01:56:15.640Z,4.79
2018-09-04T01:56:28.123Z,4.79
2018-09-04T01:56:40.595Z,4.79
2018-09-04T01:56:53.024Z,4.79
2018-09-04T01:57:05.445Z,4.79
2018-09-04T01:57:17.863Z,4.79
2018-09-04T01:57:30.257Z,4.79
2018-09-04T01:57:42.660Z,4.79
2018-09-04T01:57:55.225Z,4.79
2018-09-04T01:58:07.634Z,4.79
2018-09-04T01:58:20.053Z,4.79
2018-09-04T01:58:32.451Z,4.79
2018-09-04T01:58:44.904Z,4.79
2018-09-04T01:58:57.374Z,4.79
2018-09-04T01:59:09.777Z,4.79
2018-09-04T01:59:22.189Z,4.79
2018-09-04T01:59:34.595Z,4.79
2018-09-04T01:59:47.004Z,4.79
2018-09-04T01:59:59.413Z,4.79
2018-09-04T02:00:11.812Z,4.79
2018-09-04T02:00:24.228Z,4.79
2018-09-04T02:00:36.631Z,4.98
2018-09-04T02:00:49.072Z,4.98
2018-09-04T02:01:01.621Z,4.98
2018-09-04T02:01:14.043Z,4.98
2018-09-04T02:01:26.467Z,4.98
2018-09-04T02:01:38.896Z,4.98
2018-09-04T02:01:51.324Z,4.98
2018-09-04T02:02:03.723Z,4.98
2018-09-04T02:02:16.145Z,4.98
2018-09-04T02:02:28.628Z,4.98
2018-09-04T02:02:41.069Z,4.98
2018-09-04T02:02:53.561Z,4.98
2018-09-04T02:03:06.056Z,4.98
2018-09-04T02:03:18.464Z,4.98
2018-09-04T02:03:30.872Z,4.98
2018-09-04T02:03:43.272Z,4.98
2018-09-04T02:03:55.695Z,4.98
2018-09-04T02:04:08.217Z,4.98
2018-09-04T02:04:20.619Z,4.98
2018-09-04T02:04:33.227Z,4.98
2018-09-04T02:04:45.775Z,4.98
2018-09-04T02:04:58.369Z,4.98
2018-09-04T02:05:10.777Z,4.98
2018-09-04T02:05:23.177Z,4.98
2018-09-04T02:05:35.575Z,4.98
2018-09-04T02:05:47.978Z,4.98
2018-09-04T02:06:00.407Z,4.98
2018-09-04T02:06:12.811Z,4.98
2018-09-04T02:06:25.195Z,4.98
2018-09-04T02:06:37.653Z,4.98
2018-09-04T02:06:50.064Z,4.98
2018-09-04T02:07:02.454Z,4.98
2018-09-04T02:07:14.862Z,4.98
2018-09-04T02:07:27.292Z,4.98
2018-09-04T02:07:39.689Z,4.98
2018-09-04T02:07:52.107Z,4.98
2018-09-04T02:08:04.580Z,4.98
2018-09-04T02:08:17.005Z,4.98
2018-09-04T02:08:29.412Z,4.98
2018-09-04T02:08:41.821Z,4.98
2018-09-04T02:08:54.303Z,4.98
2018-09-04T02:09:06.739Z,4.98
2018-09-04T02:09:19.159Z,4.98
2018-09-04T02:09:31.604Z,4.98
2018-09-04T02:09:44.030Z,4.98
2018-09-04T02:09:56.441Z,4.98
2018-09-04T02:10:08.848Z,4.98
2018-09-04T02:10:21.252Z,4.98
2018-09-04T02:10:33.671Z,5.12
2018-09-04T02:10:46.057Z,5.12
2018-09-04T02:10:58.452Z,5.12
2018-09-04T02:11:10.847Z,5.12
2018-09-04T02:11:23.245Z,5.12
2018-09-04T02:11:35.731Z,5.12
2018-09-04T02:11:48.297Z,5.12
2018-09-04T02:12:00.697Z,5.12
2018-09-04T02:12:13.369Z,5.12
2018-09-04T02:12:25.769Z,5.12
2018-09-04T02:12:38.189Z,5.12
2018-09-04T02:12:50.591Z,5.12
2018-09-04T02:13:03.030Z,5.12
2018-09-04T02:13:15.410Z,5.12
2018-09-04T02:13:27.805Z,5.12
2018-09-04T02:13:40.192Z,5.12
2018-09-04T02:13:52.595Z,5.12
2018-09-04T02:14:04.989Z,5.12
2018-09-04T02:14:17.403Z,5.12
2018-09-04T02:14:29.796Z,5.12
2018-09-04T02:14:42.191Z,5.12
2018-09-04T02:14:54.610Z,5.12
2018-09-04T02:15:07.029Z,5.12
2018-09-04T02:15:19.447Z,5.12
2018-09-04T02:15:31.843Z,5.12
2018-09-04T02:15:44.267Z,5.12
2018-09-04T02:15:56.675Z,5.12
2018-09-04T02:16:09.088Z,5.12
2018-09-04T02:16:21.497Z,5.12
2018-09-04T02:16:33.898Z,5.12
2018-09-04T02:16:46.293Z,5.12
2018-09-04T02:16:58.710Z,5.12
2018-09-04T02:17:11.114Z,5.12
2018-09-04T02:17:23.520Z,5.12
2018-09-04T02:17:35.937Z,5.12
2018-09-04T02:17:48.412Z,5.12
2018-09-04T02:18:00.880Z,5.12
2018-09-04T02:18:13.295Z,5.12
2018-09-04T02:18:25.703Z,5.12
2018-09-04T02:18:38.103Z,5.12
2018-09-04T02:18:50.545Z,5.12
2018-09-04T02:19:02.979Z,5.12
2018-09-04T02:19:15.390Z,5.12
2018-09-04T02:19:27.936Z,5.12
2018-09-04T02:19:40.343Z,5.12
2018-09-04T02:19:52.776Z,5.12
2018-09-04T02:20:05.393Z,5.12
2018-09-04T02:20:17.818Z,5.12
2018-09-04T02:20:30.231Z,5.35
2018-09-04T02:20:42.798Z,5.35
2018-09-04T02:20:55.201Z,5.35
2018-09-04T02:21:07.706Z,5.35
2018-09-04T02:21:20.095Z,5.35
2018-09-04T02:21:32.476Z,5.35
2018-09-04T02:21:44.882Z,5.35
2018-09-04T02:21:57.289Z,5.35
2018-09-04T02:22:09.743Z,5.35
2018-09-04T02:22:22.129Z,5.35
2018-09-04T02:22:34.534Z,5.35
2018-09-04T02:22:46.932Z,5.35
2018-09-04T02:22:59.498Z,5.35
2018-09-04T02:23:11.919Z,5.35
2018-09-04T02:23:24.292Z,5.35
2018-09-04T02:23:36.708Z,5.35
2018-09-04T02:23:49.175Z,5.35
2018-09-04T02:24:01.569Z,5.35
2018-09-04T02:24:13.987Z,5.35
2018-09-04T02:24:26.399Z,5.35
2018-09-04T02:24:38.800Z,5.35
2018-09-04T02:24:51.362Z,5.35
2018-09-04T02:25:03.946Z,5.35
2018-09-04T02:25:16.347Z,5.35
2018-09-04T02:25:28.749Z,5.35
2018-09-04T02:25:41.144Z,5.35
2018-09-04T02:25:53.549Z,5.35
2018-09-04T02:26:06.007Z,5.35
2018-09-04T02:26:18.422Z,5.35
2018-09-04T02:26:30.821Z,5.35
2018-09-04T02:26:43.229Z,5.35
2018-09-04T02:26:55.639Z,5.35
2018-09-04T02:27:08.039Z,5.35
2018-09-04T02:27:20.456Z,5.35
2018-09-04T02:27:32.856Z,5.35
2018-09-04T02:27:45.324Z,5.35
2018-09-04T02:27:57.726Z,5.35
2018-09-04T02:28:10.124Z,5.35
2018-09-04T02:28:22.519Z,5.35
2018-09-04T02:28:34.926Z,5.35
2018-09-04T02:28:47.354Z,5.35
2018-09-04T02:28:59.756Z,5.35
2018-09-04T02:29:12.171Z,5.35
2018-09-04T02:29:24.604Z,5.35
2018-09-04T02:29:36.998Z,5.35
2018-09-04T02:29:49.402Z,5.35
2018-09-04T02:30:01.817Z,5.35
2018-09-04T02:30:14.274Z,5.35
2018-09-04T02:30:26.743Z,5.35
2018-09-04T02:30:39.145Z,5.75
2018-09-04T02:30:51.575Z,5.75
2018-09-04T02:31:04.000Z,5.75
2018-09-04T02:31:16.552Z,5.75
2018-09-04T02:31:28.972Z,5.75
2018-09-04T02:31:41.383Z,5.75
2018-09-04T02:31:53.786Z,5.75
2018-09-04T02:32:06.218Z,5.75
2018-09-04T02:32:18.620Z,5.75
2018-09-04T02:32:31.095Z,5.75
2018-09-04T02:32:43.531Z,5.75
2018-09-04T02:32:56.106Z,5.75
2018-09-04T02:33:09.463Z,5.75
2018-09-04T02:33:22.417Z,5.75
2018-09-04T02:33:34.897Z,5.75
2018-09-04T02:33:47.349Z,5.75
2018-09-04T02:33:59.775Z,5.75
2018-09-04T02:34:12.196Z,5.75
2018-09-04T02:34:24.611Z,5.75
2018-09-04T02:34:37.017Z,5.75
2018-09-04T02:34:49.445Z,5.75
2018-09-04T02:35:02.275Z,5.75
2018-09-04T02:35:14.718Z,5.75
2018-09-04T02:35:27.142Z,5.75
2018-09-04T02:35:39.555Z,5.75
2018-09-04T02:35:51.989Z,5.75
2018-09-04T02:36:04.417Z,5.75
2018-09-04T02:36:16.904Z,5.75
2018-09-04T02:36:29.312Z,5.75
2018-09-04T02:36:41.743Z,5.75
2018-09-04T02:36:54.178Z,5.75
2018-09-04T02:37:06.606Z,5.75
2018-09-04T02:37:19.004Z,5.75
2018-09-04T02:37:31.455Z,5.75
2018-09-04T02:37:43.909Z,5.75
2018-09-04T02:37:56.356Z,5.75
2018-09-04T02:38:08.884Z,5.75
2018-09-04T02:38:21.296Z,5.75
2018-09-04T02:38:33.708Z,5.75
2018-09-04T02:38:46.134Z,5.75
2018-09-04T02:38:58.605Z,5.75
2018-09-04T02:39:11.031Z,5.75
2018-09-04T02:39:23.455Z,5.75
2018-09-04T02:39:35.866Z,5.75
2018-09-04T02:39:48.310Z,5.75
2018-09-04T02:40:00.731Z,5.75
2018-09-04T02:40:13.133Z,5.75
2018-09-04T02:40:25.609Z,5.75
2018-09-04T02:40:38.010Z,5.46
2018-09-04T02:40:50.424Z,5.46
2018-09-04T02:41:02.859Z,5.46
2018-09-04T02:41:15.320Z,5.46
2018-09-04T02:41:27.765Z,5.46
2018-09-04T02:41:40.183Z,5.46
2018-09-04T02:41:52.589Z,5.46
2018-09-04T02:42:05.063Z,5.46
2018-09-04T02:42:17.463Z,5.46
2018-09-04T02:42:29.930Z,5.46
2018-09-04T02:42:42.332Z,5.46
2018-09-04T02:42:54.740Z,5.46
2018-09-04T02:43:07.177Z,5.46
2018-09-04T02:43:19.584Z,5.46
2018-09-04T02:43:31.998Z,5.46
2018-09-04T02:43:44.405Z,5.46
2018-09-04T02:43:56.818Z,5.46
2018-09-04T02:44:09.248Z,5.46
2018-09-04T02:44:21.661Z,5.46
2018-09-04T02:44:34.085Z,5.46
2018-09-04T02:44:46.481Z,5.46
2018-09-04T02:44:58.880Z,5.46
2018-09-04T02:45:11.292Z,5.46
2018-09-04T02:45:23.721Z,5.46
2018-09-04T02:45:36.186Z,5.46
2018-09-04T02:45:48.581Z,5.46
2018-09-04T02:46:00.994Z,5.46
2018-09-04T02:46:13.396Z,5.46
2018-09-04T02:46:25.826Z,5.46
2018-09-04T02:46:38.241Z,5.46